Federal Sable — V7WS4 — position and weather

sailwx.info

Track history (hours):
 
Tides and Currents Weather Stations Pressure Air Temp Water Temp Dewpoint Dewpoint Depression Visibility Wind Speed Wind Dir Waves Ship Positions

Federal Sable

Last reported at 2016-Jul-20 01:33 UTC. Time now 2016-Jul-27 21:07 UTC.
Position S 02°07' W 044°08'.

Length 190 m; draft 10.3 m.

Type: Cargo ship. MMSI: 538004380.

Date/timePositionNaut miles runAvg speedWind from/ knotsBaromVisibWave heightAir tempDewpointWater temp
2016-Jul-20 01:33S 02°07' W 044°08'1414.5
2016-Jul-20 00:33S 02°19' W 044°16'1312.9
2016-Jul-19 23:33S 02°30' W 044°23'8 8.2
2016-Jul-19 22:33S 02°38' W 044°22'3 2.9
2016-Jul-19 21:33S 02°41' W 044°22'0 0.0
2016-Jul-19 20:31S 02°41' W 044°22'0 0.0
2016-Jul-19 19:22S 02°41' W 044°22'0 0.0
2016-Jul-19 18:31S 02°41' W 044°22'0 0.0
2016-Jul-19 17:25S 02°41' W 044°22'0 0.0
2016-Jul-19 16:31S 02°41' W 044°22'0 0.0
2016-Jul-19 15:28S 02°41' W 044°22'0 0.0
2016-Jul-19 14:31S 02°41' W 044°22'0 0.0
2016-Jul-19 13:31S 02°41' W 044°22'0 0.0
2016-Jul-19 12:31S 02°41' W 044°22'0 0.0
2016-Jul-19 11:31S 02°41' W 044°22'0 0.0
2016-Jul-19 04:31S 02°41' W 044°22'0 0.0
2016-Jul-19 03:31S 02°41' W 044°22'0 0.0
2016-Jul-19 02:28S 02°41' W 044°22'0 0.0
2016-Jul-19 01:28S 02°41' W 044°22'0 0.0
2016-Jul-19 00:22S 02°41' W 044°22'0 0.0
2016-Jul-18 22:31S 02°41' W 044°22'0 0.0
2016-Jul-18 21:31S 02°41' W 044°22'0 0.0
2016-Jul-18 20:25S 02°41' W 044°22'0 0.0
2016-Jul-18 19:28S 02°41' W 044°22'0 0.0
2016-Jul-18 18:31S 02°41' W 044°22'0 0.0
2016-Jul-18 17:31S 02°41' W 044°22'0 0.0
2016-Jul-18 16:31S 02°41' W 044°22'0 0.0
2016-Jul-18 15:31S 02°41' W 044°22'0 0.0
2016-Jul-18 14:31S 02°41' W 044°22'0 0.0
2016-Jul-18 13:31S 02°41' W 044°22'0 0.0
2016-Jul-18 12:31S 02°41' W 044°22'0 0.0
2016-Jul-18 11:31S 02°41' W 044°22'0 0.0
2016-Jul-18 10:28S 02°41' W 044°22'0 0.0
2016-Jul-18 09:31S 02°41' W 044°22'0 0.0
2016-Jul-18 08:31S 02°41' W 044°22'0 0.0
2016-Jul-18 07:31S 02°41' W 044°22'0 0.0
2016-Jul-18 06:31S 02°41' W 044°22'0 0.0
2016-Jul-18 05:31S 02°41' W 044°22'0 0.0
2016-Jul-18 04:31S 02°41' W 044°22'0 0.0
2016-Jul-18 03:28S 02°41' W 044°22'0 0.0
2016-Jul-18 01:31S 02°41' W 044°22'0 0.0
2016-Jul-18 00:31S 02°41' W 044°22'0 0.0
2016-Jul-17 23:31S 02°41' W 044°22'0 0.0
2016-Jul-17 22:19S 02°41' W 044°22'0 0.0
2016-Jul-17 21:31S 02°41' W 044°22'2 1.7
2016-Jul-17 20:34S 02°39' W 044°21'7 7.4
2016-Jul-17 19:33S 02°32' W 044°23'7 7.2
2016-Jul-17 18:33S 02°25' W 044°20'5 4.5
2016-Jul-17 17:29S 02°23' W 044°15'0 0.0
2016-Jul-17 16:32S 02°23' W 044°15'0 0.0
2016-Jul-17 15:29S 02°23' W 044°15'0 0.2
2016-Jul-17 14:32S 02°23' W 044°15'0 0.0
2016-Jul-17 13:32S 02°23' W 044°15'0 0.0
2016-Jul-17 12:32S 02°23' W 044°15'0 0.0
2016-Jul-17 11:32S 02°23' W 044°15'0 0.0
2016-Jul-17 10:32S 02°23' W 044°15'0 0.2
2016-Jul-17 09:32S 02°23' W 044°15'0 0.0
2016-Jul-17 08:32S 02°23' W 044°15'0 0.0
2016-Jul-17 07:29S 02°23' W 044°15'0 0.0
2016-Jul-17 06:32S 02°23' W 044°15'0 0.0
2016-Jul-17 04:32S 02°23' W 044°15'0 0.0
2016-Jul-17 03:32S 02°23' W 044°15'0 0.1
2016-Jul-17 02:32S 02°23' W 044°15'0 0.1
2016-Jul-17 01:32S 02°23' W 044°15'0 0.0
2016-Jul-17 00:32S 02°23' W 044°15'0 0.0
2016-Jul-16 23:32S 02°23' W 044°15'0 0.0
2016-Jul-16 22:32S 02°23' W 044°15'0 0.1
2016-Jul-16 21:32S 02°23' W 044°15'0 0.1
2016-Jul-16 20:32S 02°23' W 044°15'0 0.0
2016-Jul-16 19:32S 02°23' W 044°15'0 0.0
2016-Jul-16 18:32S 02°23' W 044°15'0 0.0
2016-Jul-16 17:32S 02°23' W 044°15'0 0.0
2016-Jul-16 16:32S 02°23' W 044°15'0 0.0
2016-Jul-16 15:32S 02°23' W 044°15'0 0.1
2016-Jul-16 14:32S 02°23' W 044°15'0 0.1
2016-Jul-16 13:32S 02°23' W 044°15'0 0.0
2016-Jul-16 12:32S 02°23' W 044°15'0 0.0
2016-Jul-16 11:32S 02°23' W 044°15'0 0.0
2016-Jul-16 10:32S 02°23' W 044°15'0 0.0
2016-Jul-16 09:32S 02°23' W 044°15'0 0.2
2016-Jul-16 08:32S 02°23' W 044°15'0 0.0
2016-Jul-16 07:32S 02°23' W 044°15'0 0.0
2016-Jul-16 06:32S 02°23' W 044°15'0 0.0
2016-Jul-16 04:32S 02°23' W 044°15'0 0.0
2016-Jul-16 03:32S 02°23' W 044°15'0 0.1
2016-Jul-16 02:32S 02°23' W 044°15'0 0.1
2016-Jul-16 01:32S 02°23' W 044°15'0 0.0
2016-Jul-16 00:32S 02°23' W 044°15'0 0.0
2016-Jul-15 23:32S 02°23' W 044°15'0 0.0
2016-Jul-15 22:32S 02°23' W 044°15'0 0.1
2016-Jul-15 21:32S 02°23' W 044°15'0 0.2
2016-Jul-15 20:32S 02°23' W 044°15'0 0.1
2016-Jul-15 19:32S 02°23' W 044°15'0 0.0
2016-Jul-15 18:32S 02°23' W 044°15'0 0.0
2016-Jul-15 17:32S 02°23' W 044°15'0 0.0
2016-Jul-15 16:32S 02°23' W 044°15'0 0.0
2016-Jul-15 15:32S 02°23' W 044°15'0 0.1
2016-Jul-15 14:32S 02°23' W 044°15'0 0.1
2016-Jul-15 13:32S 02°23' W 044°15'0 0.0
2016-Jul-15 12:32S 02°23' W 044°15'0 0.0
2016-Jul-15 11:32S 02°23' W 044°15'0 0.0
2016-Jul-15 10:32S 02°23' W 044°15'0 0.0
2016-Jul-15 09:32S 02°23' W 044°15'0 0.0
2016-Jul-15 08:32S 02°23' W 044°15'0 0.2
2016-Jul-15 07:32S 02°23' W 044°15'0 0.0
2016-Jul-15 06:32S 02°23' W 044°15'0 0.0
2016-Jul-15 05:32S 02°23' W 044°15'0 0.0
2016-Jul-15 04:29S 02°23' W 044°15'0 0.0
2016-Jul-15 03:32S 02°23' W 044°15'0 0.0
2016-Jul-15 02:32S 02°23' W 044°15'0 0.1
2016-Jul-15 01:32S 02°23' W 044°15'0 0.1
2016-Jul-15 00:32S 02°23' W 044°15'0 0.0
2016-Jul-14 23:32S 02°23' W 044°15'0 0.0
2016-Jul-14 22:32S 02°23' W 044°15'0 0.0
2016-Jul-14 21:32S 02°23' W 044°15'0 0.1
2016-Jul-14 20:32S 02°23' W 044°15'0 0.1
2016-Jul-14 19:32S 02°23' W 044°15'0 0.2
2016-Jul-14 18:33S 02°23' W 044°16'4 4.0
2016-Jul-14 17:33S 02°19' W 044°16'9 8.6
2016-Jul-14 16:34S 02°12' W 044°11'  
Track history (hours):
 
Tides and Currents Weather Stations Pressure Air Temp Water Temp Dewpoint Dewpoint Depression Visibility Wind Speed Wind Dir Waves Ship Positions

Federal Sable

Last reported at 2016-Jul-20 01:33 UTC. Time now 2016-Jul-27 21:07 UTC.
Position S 02°07' W 044°08'.

Length 190 m; draft 10.3 m.

Type: Cargo ship. MMSI: 538004380.

Date/timePositionNaut miles runAvg speedWind from/ knotsBaromVisibWave heightAir tempDewpointWater temp
2016-Jul-20 01:33S 02°07' W 044°08'1414.5
2016-Jul-20 00:33S 02°19' W 044°16'1312.9
2016-Jul-19 23:33S 02°30' W 044°23'8 8.2
2016-Jul-19 22:33S 02°38' W 044°22'3 2.9
2016-Jul-19 21:33S 02°41' W 044°22'0 0.0
2016-Jul-19 20:31S 02°41' W 044°22'0 0.0
2016-Jul-19 19:22S 02°41' W 044°22'0 0.0
2016-Jul-19 18:31S 02°41' W 044°22'0 0.0
2016-Jul-19 17:25S 02°41' W 044°22'0 0.0
2016-Jul-19 16:31S 02°41' W 044°22'0 0.0
2016-Jul-19 15:28S 02°41' W 044°22'0 0.0
2016-Jul-19 14:31S 02°41' W 044°22'0 0.0
2016-Jul-19 13:31S 02°41' W 044°22'0 0.0
2016-Jul-19 12:31S 02°41' W 044°22'0 0.0
2016-Jul-19 11:31S 02°41' W 044°22'0 0.0
2016-Jul-19 04:31S 02°41' W 044°22'0 0.0
2016-Jul-19 03:31S 02°41' W 044°22'0 0.0
2016-Jul-19 02:28S 02°41' W 044°22'0 0.0
2016-Jul-19 01:28S 02°41' W 044°22'0 0.0
2016-Jul-19 00:22S 02°41' W 044°22'0 0.0
2016-Jul-18 22:31S 02°41' W 044°22'0 0.0
2016-Jul-18 21:31S 02°41' W 044°22'0 0.0
2016-Jul-18 20:25S 02°41' W 044°22'0 0.0
2016-Jul-18 19:28S 02°41' W 044°22'0 0.0
2016-Jul-18 18:31S 02°41' W 044°22'0 0.0
2016-Jul-18 17:31S 02°41' W 044°22'0 0.0
2016-Jul-18 16:31S 02°41' W 044°22'0 0.0
2016-Jul-18 15:31S 02°41' W 044°22'0 0.0
2016-Jul-18 14:31S 02°41' W 044°22'0 0.0
2016-Jul-18 13:31S 02°41' W 044°22'0 0.0
2016-Jul-18 12:31S 02°41' W 044°22'0 0.0
2016-Jul-18 11:31S 02°41' W 044°22'0 0.0
2016-Jul-18 10:28S 02°41' W 044°22'0 0.0
2016-Jul-18 09:31S 02°41' W 044°22'0 0.0
2016-Jul-18 08:31S 02°41' W 044°22'0 0.0
2016-Jul-18 07:31S 02°41' W 044°22'0 0.0
2016-Jul-18 06:31S 02°41' W 044°22'0 0.0
2016-Jul-18 05:31S 02°41' W 044°22'0 0.0
2016-Jul-18 04:31S 02°41' W 044°22'0 0.0
2016-Jul-18 03:28S 02°41' W 044°22'0 0.0
2016-Jul-18 01:31S 02°41' W 044°22'0 0.0
2016-Jul-18 00:31S 02°41' W 044°22'0 0.0
2016-Jul-17 23:31S 02°41' W 044°22'0 0.0
2016-Jul-17 22:19S 02°41' W 044°22'0 0.0
2016-Jul-17 21:31S 02°41' W 044°22'2 1.7
2016-Jul-17 20:34S 02°39' W 044°21'7 7.4
2016-Jul-17 19:33S 02°32' W 044°23'7 7.2
2016-Jul-17 18:33S 02°25' W 044°20'5 4.5
2016-Jul-17 17:29S 02°23' W 044°15'0 0.0
2016-Jul-17 16:32S 02°23' W 044°15'0 0.0
2016-Jul-17 15:29S 02°23' W 044°15'0 0.2
2016-Jul-17 14:32S 02°23' W 044°15'0 0.0
2016-Jul-17 13:32S 02°23' W 044°15'0 0.0
2016-Jul-17 12:32S 02°23' W 044°15'0 0.0
2016-Jul-17 11:32S 02°23' W 044°15'0 0.0
2016-Jul-17 10:32S 02°23' W 044°15'0 0.2
2016-Jul-17 09:32S 02°23' W 044°15'0 0.0
2016-Jul-17 08:32S 02°23' W 044°15'0 0.0
2016-Jul-17 07:29S 02°23' W 044°15'0 0.0
2016-Jul-17 06:32S 02°23' W 044°15'0 0.0
2016-Jul-17 04:32S 02°23' W 044°15'0 0.0
2016-Jul-17 03:32S 02°23' W 044°15'0 0.1
2016-Jul-17 02:32S 02°23' W 044°15'0 0.1
2016-Jul-17 01:32S 02°23' W 044°15'0 0.0
2016-Jul-17 00:32S 02°23' W 044°15'0 0.0
2016-Jul-16 23:32S 02°23' W 044°15'0 0.0
2016-Jul-16 22:32S 02°23' W 044°15'0 0.1
2016-Jul-16 21:32S 02°23' W 044°15'0 0.1
2016-Jul-16 20:32S 02°23' W 044°15'0 0.0
2016-Jul-16 19:32S 02°23' W 044°15'0 0.0
2016-Jul-16 18:32S 02°23' W 044°15'0 0.0
2016-Jul-16 17:32S 02°23' W 044°15'0 0.0
2016-Jul-16 16:32S 02°23' W 044°15'0 0.0
2016-Jul-16 15:32S 02°23' W 044°15'0 0.1
2016-Jul-16 14:32S 02°23' W 044°15'0 0.1
2016-Jul-16 13:32S 02°23' W 044°15'0 0.0
2016-Jul-16 12:32S 02°23' W 044°15'0 0.0
2016-Jul-16 11:32S 02°23' W 044°15'0 0.0
2016-Jul-16 10:32S 02°23' W 044°15'0 0.0
2016-Jul-16 09:32S 02°23' W 044°15'0 0.2
2016-Jul-16 08:32S 02°23' W 044°15'0 0.0
2016-Jul-16 07:32S 02°23' W 044°15'0 0.0
2016-Jul-16 06:32S 02°23' W 044°15'0 0.0
2016-Jul-16 04:32S 02°23' W 044°15'0 0.0
2016-Jul-16 03:32S 02°23' W 044°15'0 0.1
2016-Jul-16 02:32S 02°23' W 044°15'0 0.1
2016-Jul-16 01:32S 02°23' W 044°15'0 0.0
2016-Jul-16 00:32S 02°23' W 044°15'0 0.0
2016-Jul-15 23:32S 02°23' W 044°15'0 0.0
2016-Jul-15 22:32S 02°23' W 044°15'0 0.1
2016-Jul-15 21:32S 02°23' W 044°15'0 0.2
2016-Jul-15 20:32S 02°23' W 044°15'0 0.1
2016-Jul-15 19:32S 02°23' W 044°15'0 0.0
2016-Jul-15 18:32S 02°23' W 044°15'0 0.0
2016-Jul-15 17:32S 02°23' W 044°15'0 0.0
2016-Jul-15 16:32S 02°23' W 044°15'0 0.0
2016-Jul-15 15:32S 02°23' W 044°15'0 0.1
2016-Jul-15 14:32S 02°23' W 044°15'0 0.1
2016-Jul-15 13:32S 02°23' W 044°15'0 0.0
2016-Jul-15 12:32S 02°23' W 044°15'0 0.0
2016-Jul-15 11:32S 02°23' W 044°15'0 0.0
2016-Jul-15 10:32S 02°23' W 044°15'0 0.0
2016-Jul-15 09:32S 02°23' W 044°15'0 0.0
2016-Jul-15 08:32S 02°23' W 044°15'0 0.2
2016-Jul-15 07:32S 02°23' W 044°15'0 0.0
2016-Jul-15 06:32S 02°23' W 044°15'0 0.0
2016-Jul-15 05:32S 02°23' W 044°15'0 0.0
2016-Jul-15 04:29S 02°23' W 044°15'0 0.0
2016-Jul-15 03:32S 02°23' W 044°15'0 0.0
2016-Jul-15 02:32S 02°23' W 044°15'0 0.1
2016-Jul-15 01:32S 02°23' W 044°15'0 0.1
2016-Jul-15 00:32S 02°23' W 044°15'0 0.0
2016-Jul-14 23:32S 02°23' W 044°15'0 0.0
2016-Jul-14 22:32S 02°23' W 044°15'0 0.0
2016-Jul-14 21:32S 02°23' W 044°15'0 0.1
2016-Jul-14 20:32S 02°23' W 044°15'0 0.1
2016-Jul-14 19:32S 02°23' W 044°15'0 0.2
2016-Jul-14 18:33S 02°23' W 044°16'4 4.0
2016-Jul-14 17:33S 02°19' W 044°16'9 8.6
2016-Jul-14 16:34S 02°12' W 044°11'  

Dump ship's entire track history